EGDY METAR and TAF | Updated Today

EGDY METAR

RNAS Yeovilton

Observation time: 20 min. ago

EGDY 200650Z 22005KT 9000 -RA SCT050 OVC070 11/08 Q1019 TEMPO 6000 RA RMK BLU TEMPO WHT

Need help? Read our tutorial on how to read METARs or read the parsed version below.

RNAS Yeovilton (EGDY) METAR

  • Weather conditions on Fri, 20 May 2022 06:50:00 +0000 (20 min. ago):
  • Present conditions: Light rain
  • Clouds: Scattered at 1524 meters; overcast sky at 2134 meters
  • Visibility: 9000 meters
  • Wind: 220 degrees at 5 knots
  • Temperature: 11 celsius
  • Dew point: 8 celsius
  • Pressure: 1019 millibars
  • Remarks: BLU TEMPO WHT


Useful to know...

EGDY TAF

RNAS Yeovilton

TAF EGDY 191627Z 1918/2003 22007KT 9999 FEW040
Observation time: 14:43 hr. ago
Need help? Read our tutorial on how to read TAFs or read the parsed version below.

Parsed version of TAF for RNAS Yeovilton (EGDY)

  • From 19 May at 18:00 UTC, to day 20 of the month at 03:00 UTC
  • Clouds: A few at 1219 meters
  • Visibility: Greater than 10 km
  • Wind: 220 degrees at 7